createdAt,value
2023-11-12T00:02:03.213Z,100239.66
2023-11-12T00:04:31.237Z,100243.34
2023-11-12T00:06:59.080Z,100235.19
2023-11-12T00:09:28.414Z,100225.22
2023-11-12T00:11:56.391Z,100230.75
2023-11-12T00:14:25.205Z,100232.59
2023-11-12T00:16:53.089Z,100239.00
2023-11-12T00:19:20.999Z,100237.16
2023-11-12T00:21:49.720Z,100230.00
2023-11-12T00:24:18.853Z,100230.88
2023-11-12T00:26:48.708Z,100228.16
2023-11-12T00:29:17.326Z,100230.09
2023-11-12T00:31:45.284Z,100221.09
2023-11-12T00:34:13.226Z,100221.09
2023-11-12T00:36:41.824Z,100223.81
2023-11-12T00:39:10.606Z,100225.69
2023-11-12T00:41:40.048Z,100224.81
2023-11-12T00:44:12.204Z,100221.09
2023-11-12T00:46:42.420Z,100219.50
2023-11-12T00:49:11.151Z,100229.38
2023-11-12T00:51:39.075Z,100224.81
2023-11-12T00:54:07.179Z,100213.09
2023-11-12T00:56:35.108Z,100214.94
2023-11-12T00:59:06.255Z,100212.22
2023-11-12T01:01:35.834Z,100208.53
2023-11-12T01:04:04.509Z,100210.50
2023-11-12T01:06:34.637Z,100209.63
2023-11-12T01:09:02.571Z,100212.34
2023-11-12T01:11:30.622Z,100203.31
2023-11-12T01:13:58.681Z,100204.19
2023-11-12T01:16:27.140Z,100205.19
2023-11-12T01:18:59.930Z,100204.09
2023-11-12T01:21:28.662Z,100199.75
2023-11-12T01:23:56.994Z,100195.94
2023-11-12T01:26:25.331Z,100202.22
2023-11-12T01:28:54.370Z,100206.69
2023-11-12T01:31:22.322Z,100200.25
2023-11-12T01:33:50.291Z,100200.13
2023-11-12T01:36:19.610Z,100203.59
2023-11-12T01:38:47.602Z,100205.31
2023-11-12T01:41:15.571Z,100206.06
2023-11-12T01:43:43.880Z,100208.66
2023-11-12T01:46:13.560Z,100204.94
2023-11-12T01:48:41.941Z,100212.13
2023-11-12T01:51:10.370Z,100204.84
2023-11-12T01:53:42.025Z,100210.91
2023-11-12T01:56:12.922Z,100207.31
2023-11-12T01:58:44.287Z,100203.63
2023-11-12T02:01:13.670Z,100199.06
2023-11-12T02:03:44.378Z,100194.50
2023-11-12T02:06:13.924Z,100198.19
2023-11-12T02:08:44.126Z,100188.19
2023-11-12T02:11:13.536Z,100184.72
2023-11-12T02:13:44.212Z,100183.84
2023-11-12T02:16:12.570Z,100190.38
2023-11-12T02:18:45.731Z,100193.97
2023-11-12T02:21:13.806Z,100192.34
2023-11-12T02:23:43.102Z,100198.66
2023-11-12T02:26:11.241Z,100193.38
2023-11-12T02:28:39.940Z,100195.22
2023-11-12T02:31:08.372Z,100177.19
2023-11-12T02:33:36.547Z,100181.75
2023-11-12T02:36:05.201Z,100185.44
2023-11-12T02:38:33.151Z,100190.00
2023-11-12T02:41:03.385Z,100198.03
2023-11-12T02:43:31.360Z,100200.88
2023-11-12T02:45:59.584Z,100199.13
2023-11-12T02:48:40.494Z,100202.72
2023-11-12T02:51:08.655Z,100204.69
2023-11-12T02:53:36.540Z,100193.94
2023-11-12T02:56:08.102Z,100197.41
2023-11-12T02:58:36.439Z,100186.81
2023-11-12T03:01:04.543Z,100183.22
2023-11-12T03:03:33.003Z,100187.78
2023-11-12T03:06:01.020Z,100186.91
2023-11-12T03:08:29.038Z,100201.38
2023-11-12T03:10:58.144Z,100193.22
2023-11-12T03:13:28.117Z,100198.66
2023-11-12T03:15:56.236Z,100207.66
2023-11-12T03:18:25.287Z,100194.09
2023-11-12T03:20:54.373Z,100194.09
2023-11-12T03:23:22.247Z,100190.38
2023-11-12T03:25:50.679Z,100194.81
2023-11-12T03:28:18.673Z,100192.97
2023-11-12T03:30:48.016Z,100191.97
2023-11-12T03:33:16.074Z,100178.50
2023-11-12T03:35:44.076Z,100181.13
2023-11-12T03:38:11.942Z,100176.56
2023-11-12T03:40:39.883Z,100178.41
2023-11-12T03:43:07.846Z,100181.00
2023-11-12T03:45:35.698Z,100170.13
2023-11-12T03:48:05.411Z,100167.31
2023-11-12T03:50:33.390Z,100172.84
2023-11-12T03:53:01.656Z,100174.59
2023-11-12T03:55:29.915Z,100170.03
2023-11-12T03:57:58.003Z,100171.00
2023-11-12T04:00:25.970Z,100171.00
2023-11-12T04:02:54.514Z,100171.00
2023-11-12T04:05:23.791Z,100166.31
2023-11-12T04:07:53.103Z,100164.59
2023-11-12T04:10:21.319Z,100162.75
2023-11-12T04:12:49.544Z,100161.75
2023-11-12T04:15:18.044Z,100161.75
2023-11-12T04:17:46.288Z,100164.31
2023-11-12T04:20:16.089Z,100157.03
2023-11-12T04:22:46.723Z,100156.81
2023-11-12T04:25:15.061Z,100151.50
2023-11-12T04:27:43.057Z,100153.34
2023-11-12T04:30:11.732Z,100155.94
2023-11-12T04:32:39.992Z,100153.34
2023-11-12T04:35:08.986Z,100150.63
2023-11-12T04:37:37.075Z,100154.31
2023-11-12T04:40:07.796Z,100156.06
2023-11-12T04:42:35.696Z,100157.19
2023-11-12T04:45:03.842Z,100162.63
2023-11-12T04:47:31.846Z,100163.59
2023-11-12T04:50:00.429Z,100162.75
2023-11-12T04:52:28.774Z,100156.44
2023-11-12T04:54:56.605Z,100161.00
2023-11-12T04:57:25.954Z,100165.34
2023-11-12T04:59:54.428Z,100167.19
2023-11-12T05:02:22.701Z,100161.75
2023-11-12T05:04:50.542Z,100168.06
2023-11-12T05:07:18.540Z,100165.34
2023-11-12T05:09:46.899Z,100168.16
2023-11-12T05:12:16.696Z,100166.19
2023-11-12T05:14:46.324Z,100164.31
2023-11-12T05:17:14.615Z,100168.06
2023-11-12T05:19:42.476Z,100168.91
2023-11-12T05:22:10.350Z,100177.06
2023-11-12T05:24:38.555Z,100176.06
2023-11-12T05:27:07.525Z,100174.97
2023-11-12T05:29:35.407Z,100172.34
2023-11-12T05:32:04.940Z,100171.25
2023-11-12T05:34:32.895Z,100173.97
2023-11-12T05:37:00.894Z,100171.25
2023-11-12T05:39:28.792Z,100177.56
2023-11-12T05:41:56.649Z,100178.41
2023-11-12T05:44:24.513Z,100183.00
2023-11-12T05:46:52.394Z,100182.13
2023-11-12T05:49:21.703Z,100183.84
2023-11-12T05:51:49.636Z,100179.41
2023-11-12T05:54:20.478Z,100179.41
2023-11-12T05:56:48.502Z,100181.25
2023-11-12T05:59:16.893Z,100185.69
2023-11-12T06:01:44.813Z,100181.25
2023-11-12T06:04:12.898Z,100183.09
2023-11-12T06:06:42.669Z,100179.41
2023-11-12T06:09:10.591Z,100183.22
2023-11-12T06:11:39.206Z,100197.66
2023-11-12T06:14:07.391Z,100196.81
2023-11-12T06:16:36.860Z,100203.22
2023-11-12T06:19:05.025Z,100200.50
2023-11-12T06:21:33.186Z,100201.50
2023-11-12T06:24:02.887Z,100202.22
2023-11-12T06:26:35.144Z,100200.66
2023-11-12T06:29:03.194Z,100199.03
2023-11-12T06:31:31.371Z,100207.06
2023-11-12T06:33:59.712Z,100209.78
2023-11-12T06:36:27.652Z,100209.03
2023-11-12T06:38:56.252Z,100208.16
2023-11-12T06:41:25.633Z,100214.56
2023-11-12T06:43:53.588Z,100212.13
2023-11-12T06:46:21.541Z,100213.97
2023-11-12T06:48:49.609Z,100216.78
2023-11-12T06:51:22.670Z,100214.81
2023-11-12T06:53:50.748Z,100218.75
2023-11-12T06:56:18.813Z,100217.88
2023-11-12T06:58:49.554Z,100226.03
2023-11-12T07:01:17.652Z,100228.88
2023-11-12T07:03:46.138Z,100225.28
2023-11-12T07:06:14.140Z,100237.00
2023-11-12T07:08:42.671Z,100234.41
2023-11-12T07:11:11.458Z,100237.13
2023-11-12T07:13:39.332Z,100237.13
2023-11-12T07:16:17.759Z,100245.25
2023-11-12T07:18:53.584Z,100246.50
2023-11-12T07:21:27.262Z,100250.09
2023-11-12T07:23:55.710Z,100249.59
2023-11-12T07:26:25.395Z,100240.31
2023-11-12T07:28:54.164Z,100247.72
2023-11-12T07:31:25.603Z,100252.16
2023-11-12T07:33:54.189Z,100258.72
2023-11-12T07:36:23.283Z,100254.25
2023-11-12T07:38:51.814Z,100254.25
2023-11-12T07:41:19.897Z,100266.97
2023-11-12T07:43:47.916Z,100269.69
2023-11-12T07:46:15.833Z,100271.53
2023-11-12T07:48:45.301Z,100276.84
2023-11-12T07:51:13.763Z,100275.97
2023-11-12T07:53:42.135Z,100270.56
2023-11-12T07:58:51.476Z,100276.09
2023-11-12T08:01:19.515Z,100278.69
2023-11-12T08:03:48.920Z,100277.72
2023-11-12T08:06:16.995Z,100279.56
2023-11-12T08:08:44.948Z,100281.41
2023-11-12T08:11:12.904Z,100277.72
2023-11-12T08:13:41.157Z,100278.59
2023-11-12T08:16:10.964Z,100284.88
2023-11-12T08:18:40.611Z,100291.03
2023-11-12T08:21:10.902Z,100281.03
2023-11-12T08:23:38.981Z,100294.63
2023-11-12T08:26:07.022Z,100289.19
2023-11-12T08:28:34.913Z,100294.50
2023-11-12T08:31:02.851Z,100298.09
2023-11-12T08:33:30.853Z,100303.31
2023-11-12T08:35:58.921Z,100300.59
2023-11-12T08:38:28.271Z,100302.06
2023-11-12T08:40:56.223Z,100308.38
2023-11-12T08:43:25.220Z,100313.69
2023-11-12T08:45:53.297Z,100310.84
2023-11-12T08:48:21.753Z,100319.63
2023-11-12T08:50:50.933Z,100316.69
2023-11-12T08:53:18.872Z,100315.59
2023-11-12T08:55:48.337Z,100318.81
2023-11-12T08:58:16.237Z,100315.84
2023-11-12T09:00:44.249Z,100317.34
2023-11-12T09:03:12.242Z,100312.41
2023-11-12T09:05:40.119Z,100311.19
2023-11-12T09:08:09.092Z,100314.41
2023-11-12T09:10:36.976Z,100309.50
2023-11-12T09:13:06.291Z,100313.47
2023-11-12T09:15:34.915Z,100316.78
2023-11-12T09:18:03.428Z,100317.19
2023-11-12T09:20:31.397Z,100310.38
2023-11-12T09:22:59.429Z,100314.47
2023-11-12T09:25:28.260Z,100303.13
2023-11-12T09:27:57.028Z,100308.94
2023-11-12T09:30:28.387Z,100314.66
2023-11-12T09:32:59.831Z,100308.84
2023-11-12T09:35:27.806Z,100303.75
2023-11-12T09:37:55.676Z,100306.00
2023-11-12T09:40:23.603Z,100306.47
2023-11-12T09:42:55.025Z,100304.97
2023-11-12T09:45:23.657Z,100304.63
2023-11-12T09:48:04.428Z,100304.97
2023-11-12T09:50:32.804Z,100306.44
2023-11-12T09:53:04.328Z,100305.09
2023-11-12T09:55:32.936Z,100303.59
2023-11-12T09:58:02.810Z,100304.06
2023-11-12T10:00:35.796Z,100304.28
2023-11-12T10:03:07.677Z,100308.06
2023-11-12T10:05:36.937Z,100302.44
2023-11-12T10:08:06.662Z,100302.66
2023-11-12T10:10:35.993Z,100302.28
2023-11-12T10:13:05.977Z,100296.69
2023-11-12T10:15:36.170Z,100301.88
2023-11-12T10:18:07.780Z,100303.22
2023-11-12T10:20:40.046Z,100302.09
2023-11-12T10:23:30.559Z,100290.09
2023-11-12T10:26:03.419Z,100286.72
2023-11-12T10:28:35.723Z,100288.94
2023-11-12T10:31:04.298Z,100287.09
2023-11-12T10:33:35.254Z,100292.75
2023-11-12T10:36:10.162Z,100282.59
2023-11-12T10:38:48.627Z,100286.94
2023-11-12T10:41:17.173Z,100288.78
2023-11-12T10:43:59.719Z,100272.91
2023-11-12T10:46:29.120Z,100272.03
2023-11-12T10:48:59.099Z,100280.41
2023-11-12T10:51:28.323Z,100283.75
2023-11-12T10:54:00.082Z,100286.22
2023-11-12T10:56:29.645Z,100283.22
2023-11-12T10:58:58.967Z,100281.88
2023-11-12T11:01:27.565Z,100282.31
2023-11-12T11:03:56.017Z,100280.16
2023-11-12T11:06:28.172Z,100289.56
2023-11-12T11:08:57.076Z,100281.41
2023-11-12T11:11:25.990Z,100280.72
2023-11-12T11:13:54.083Z,100283.03
2023-11-12T11:16:47.991Z,100288.09
2023-11-12T11:19:16.046Z,100292.25
2023-11-12T11:22:24.074Z,100289.84
2023-11-12T11:24:53.198Z,100294.78
2023-11-12T11:27:22.729Z,100293.13
2023-11-12T11:30:09.836Z,100285.94
2023-11-12T11:32:38.544Z,100290.13
2023-11-12T11:35:19.076Z,100290.19
2023-11-12T11:38:18.073Z,100285.28
2023-11-12T11:40:57.944Z,100290.22
2023-11-12T11:43:33.792Z,100281.59
2023-11-12T11:46:15.943Z,100286.66
2023-11-12T11:49:18.725Z,100283.94
2023-11-12T11:51:47.839Z,100290.97
2023-11-12T11:54:17.350Z,100291.41
2023-11-12T11:56:47.159Z,100292.13
2023-11-12T11:59:15.197Z,100290.13
2023-11-12T12:01:44.532Z,100299.91
2023-11-12T12:04:12.907Z,100295.31
2023-11-12T12:06:45.101Z,100304.06
2023-11-12T12:09:18.738Z,100303.50
2023-11-12T12:11:52.503Z,100308.84
2023-11-12T12:14:21.662Z,100298.78
2023-11-12T12:16:49.930Z,100304.38
2023-11-12T12:19:19.543Z,100309.69
2023-11-12T12:21:50.365Z,100315.16
2023-11-12T12:24:19.632Z,100304.38
2023-11-12T12:26:52.840Z,100320.63
2023-11-12T12:29:22.524Z,100318.03
2023-11-12T12:31:51.808Z,100318.03
2023-11-12T12:34:20.990Z,100323.50
2023-11-12T12:36:56.829Z,100324.19
2023-11-12T12:39:27.784Z,100314.44
2023-11-12T12:42:05.621Z,100312.44
2023-11-12T12:44:34.455Z,100314.56
2023-11-12T12:47:02.730Z,100311.84
2023-11-12T12:49:34.801Z,100307.22
2023-11-12T12:52:04.127Z,100307.63
2023-11-12T12:54:32.407Z,100312.97
2023-11-12T12:57:02.259Z,100312.97
2023-11-12T12:59:36.169Z,100303.03
2023-11-12T13:02:04.542Z,100302.47
2023-11-12T13:04:34.017Z,100300.75
2023-11-12T13:07:07.778Z,100294.41
2023-11-12T13:09:37.867Z,100292.69
2023-11-12T13:12:08.847Z,100286.22
2023-11-12T13:14:38.743Z,100298.28
2023-11-12T13:17:06.616Z,100294.69
2023-11-12T13:19:34.738Z,100298.41
2023-11-12T13:22:04.518Z,100287.66
2023-11-12T13:24:35.385Z,100290.38
2023-11-12T13:27:04.002Z,100288.66
2023-11-12T13:29:33.324Z,100294.97
2023-11-12T13:32:01.669Z,100286.94
2023-11-12T13:34:29.589Z,100296.97
2023-11-12T13:36:57.937Z,100284.19
2023-11-12T13:39:25.894Z,100291.53
2023-11-12T13:41:55.891Z,100294.25
2023-11-12T13:44:25.820Z,100288.78
2023-11-12T13:46:55.256Z,100280.47
2023-11-12T13:49:23.354Z,100289.66
2023-11-12T13:51:51.713Z,100285.06
2023-11-12T13:54:20.413Z,100286.06
2023-11-12T13:56:48.907Z,100284.31
2023-11-12T13:59:18.054Z,100285.31
2023-11-12T14:01:46.581Z,100281.88
2023-11-12T14:04:16.314Z,100282.72
2023-11-12T14:06:44.729Z,100287.50
2023-11-12T14:09:13.396Z,100292.09
2023-11-12T14:11:41.741Z,100300.41
2023-11-12T14:14:09.795Z,100295.94
2023-11-12T14:16:38.856Z,100296.06
2023-11-12T14:19:12.092Z,100297.06
2023-11-12T14:21:43.394Z,100302.53
2023-11-12T14:24:12.730Z,100304.56
2023-11-12T14:26:45.308Z,100307.28
2023-11-12T14:29:13.703Z,100302.09
2023-11-12T14:31:41.906Z,100311.16
2023-11-12T14:34:14.305Z,100314.88
2023-11-12T14:36:44.658Z,100307.81
2023-11-12T14:39:18.968Z,100306.09
2023-11-12T14:41:49.507Z,100304.38
2023-11-12T14:44:18.197Z,100308.09
2023-11-12T14:46:46.478Z,100300.06
2023-11-12T14:49:14.962Z,100307.50
2023-11-12T14:51:47.438Z,100303.78
2023-11-12T14:54:16.040Z,100304.22
2023-11-12T14:56:44.201Z,100304.22
2023-11-12T14:59:13.347Z,100313.38
2023-11-12T15:01:46.713Z,100317.13
2023-11-12T15:04:16.938Z,100308.19
2023-11-12T15:06:46.650Z,100324.56
2023-11-12T15:09:16.419Z,100325.69
2023-11-12T15:11:44.639Z,100331.16
2023-11-12T15:14:12.820Z,100331.31
2023-11-12T15:16:41.122Z,100332.31
2023-11-12T15:19:11.671Z,100332.44
2023-11-12T15:21:43.331Z,100325.25
2023-11-12T15:24:13.558Z,100327.09
2023-11-12T15:26:42.770Z,100329.09
2023-11-12T15:29:11.090Z,100324.78
2023-11-12T15:31:39.532Z,100326.66
2023-11-12T15:34:11.711Z,100323.19
2023-11-12T15:36:40.473Z,100328.03
2023-11-12T15:39:09.654Z,100319.72
2023-11-12T15:41:40.271Z,100327.91
2023-11-12T15:44:10.836Z,100339.09
2023-11-12T15:46:41.265Z,100337.38
2023-11-12T15:49:09.317Z,100338.38
2023-11-12T15:51:37.274Z,100336.63
2023-11-12T15:54:05.886Z,100337.63
2023-11-12T15:56:33.731Z,100341.34
2023-11-12T15:59:02.976Z,100344.09
2023-11-12T16:01:30.905Z,100344.34
2023-11-12T16:03:59.020Z,100342.63
2023-11-12T16:06:30.190Z,100347.34
2023-11-12T16:08:58.123Z,100344.75
2023-11-12T16:11:29.267Z,100347.59
2023-11-12T16:13:58.369Z,100350.63
2023-11-12T16:16:27.863Z,100354.22
2023-11-12T16:18:55.825Z,100358.06
2023-11-12T16:21:24.346Z,100366.38
2023-11-12T16:23:52.539Z,100370.09
2023-11-12T16:26:20.935Z,100363.91
2023-11-12T16:28:48.896Z,100380.41
2023-11-12T16:31:16.858Z,100390.44
2023-11-12T16:33:46.355Z,100391.31
2023-11-12T16:36:14.535Z,100393.31
2023-11-12T16:38:42.427Z,100390.69
2023-11-12T16:41:10.289Z,100392.56
2023-11-12T16:43:38.280Z,100389.97
2023-11-12T16:46:06.278Z,100389.97
2023-11-12T16:48:34.266Z,100389.22
2023-11-12T16:51:04.551Z,100395.53
2023-11-12T16:53:32.854Z,100387.66
2023-11-12T16:56:02.490Z,100390.50
2023-11-12T16:58:30.681Z,100391.50
2023-11-12T17:00:58.648Z,100393.47
2023-11-12T17:03:26.684Z,100392.47
2023-11-12T17:05:54.633Z,100390.91
2023-11-12T17:08:23.948Z,100392.59
2023-11-12T17:10:53.479Z,100400.94
2023-11-12T17:13:22.546Z,100399.19
2023-11-12T17:15:50.842Z,100401.06
2023-11-12T17:18:19.697Z,100391.16
2023-11-12T17:20:48.969Z,100393.00
2023-11-12T17:23:16.918Z,100403.91
2023-11-12T17:25:46.205Z,100403.03
2023-11-12T17:28:14.153Z,100416.75
2023-11-12T17:30:42.924Z,100401.41
2023-11-12T17:33:10.973Z,100390.66
2023-11-12T17:35:40.032Z,100392.50
2023-11-12T17:38:08.016Z,100389.91
2023-11-12T17:40:37.517Z,100388.28
2023-11-12T17:43:07.151Z,100399.31
2023-11-12T17:45:35.564Z,100390.56
2023-11-12T17:48:04.855Z,100389.94
2023-11-12T17:50:34.111Z,100403.56
2023-11-12T17:53:02.103Z,100408.41
2023-11-12T17:55:30.021Z,100404.09
2023-11-12T17:58:00.763Z,100404.22
2023-11-12T18:00:30.381Z,100419.81
2023-11-12T18:02:58.408Z,100420.09
2023-11-12T18:05:27.340Z,100424.91
2023-11-12T18:07:55.464Z,100424.31
2023-11-12T18:10:23.369Z,100420.72
2023-11-12T18:12:51.396Z,100419.22
2023-11-12T18:15:20.445Z,100424.81
2023-11-12T18:17:49.763Z,100430.25
2023-11-12T18:20:18.789Z,100432.38
2023-11-12T18:22:46.697Z,100437.06
2023-11-12T18:25:14.572Z,100445.38
2023-11-12T18:27:42.929Z,100451.78
2023-11-12T18:30:11.737Z,100463.56
2023-11-12T18:32:39.791Z,100456.38
2023-11-12T18:35:10.884Z,100457.13
2023-11-12T18:37:40.981Z,100452.78
2023-11-12T18:40:15.855Z,100439.06
2023-11-12T18:42:44.149Z,100429.16
2023-11-12T18:45:14.409Z,100443.63
2023-11-12T18:47:44.098Z,100441.91
2023-11-12T18:50:14.022Z,100458.97
2023-11-12T18:52:42.709Z,100460.97
2023-11-12T18:55:10.651Z,100456.38
2023-11-12T18:57:38.618Z,100445.47
2023-11-12T19:00:07.964Z,100442.75
2023-11-12T19:02:36.373Z,100443.63
2023-11-12T19:05:04.754Z,100439.06
2023-11-12T19:07:34.314Z,100442.63
2023-11-12T19:10:02.327Z,100450.94
2023-11-12T19:12:30.368Z,100449.06
2023-11-12T19:15:00.010Z,100444.63
2023-11-12T19:17:29.078Z,100455.50
2023-11-12T19:19:57.048Z,100468.25
2023-11-12T19:22:24.964Z,100453.78
2023-11-12T19:24:54.522Z,100450.06
2023-11-12T19:27:27.043Z,100452.94
2023-11-12T19:30:02.720Z,100464.06
2023-11-12T19:32:37.095Z,100459.59
2023-11-12T19:35:05.760Z,100447.72
2023-11-12T19:37:35.451Z,100439.69
2023-11-12T19:40:05.231Z,100428.91
2023-11-12T19:42:33.269Z,100413.81
2023-11-12T19:45:01.226Z,100421.25
2023-11-12T19:47:32.393Z,100421.47
2023-11-12T19:50:00.639Z,100421.75
2023-11-12T19:52:29.607Z,100428.44
2023-11-12T19:54:57.758Z,100422.38
2023-11-12T19:57:28.044Z,100440.69
2023-11-12T19:59:57.106Z,100446.47
2023-11-12T20:02:24.989Z,100462.22
2023-11-12T20:04:53.096Z,100480.63
2023-11-12T20:07:21.230Z,100472.59
2023-11-12T20:09:50.067Z,100485.59
2023-11-12T20:12:18.092Z,100478.41
2023-11-12T20:14:49.979Z,100481.25
2023-11-12T20:17:18.136Z,100487.81
2023-11-12T20:19:46.048Z,100483.47
2023-11-12T20:22:18.652Z,100471.84
2023-11-12T20:24:51.228Z,100470.34
2023-11-12T20:27:20.031Z,100481.47
2023-11-12T20:29:51.023Z,100479.63
2023-11-12T20:32:19.341Z,100484.31
2023-11-12T20:34:47.274Z,100486.28
2023-11-12T20:37:17.127Z,100481.09
2023-11-12T20:39:45.395Z,100487.50
2023-11-12T20:42:14.693Z,100485.78
2023-11-12T20:44:43.228Z,100482.41
2023-11-12T20:47:13.677Z,100477.84
2023-11-12T20:49:41.951Z,100468.22
2023-11-12T20:52:10.695Z,100478.22
2023-11-12T20:54:39.336Z,100491.94
2023-11-12T20:57:08.013Z,100499.34
2023-11-12T20:59:37.529Z,100515.81
2023-11-12T21:02:14.535Z,100521.25
2023-11-12T21:04:51.713Z,100507.63
2023-11-12T21:07:21.108Z,100485.00
2023-11-12T21:09:50.681Z,100485.88
2023-11-12T21:12:18.944Z,100485.88
2023-11-12T21:14:48.149Z,100491.19
2023-11-12T21:17:17.562Z,100499.47
2023-11-12T21:19:45.571Z,100492.19
2023-11-12T21:22:14.809Z,100487.59
2023-11-12T21:24:44.179Z,100500.47
2023-11-12T21:27:13.765Z,100493.16
2023-11-12T21:29:41.918Z,100486.88
2023-11-12T21:32:10.610Z,100483.28
2023-11-12T21:34:39.140Z,100473.16
2023-11-12T21:37:07.595Z,100472.41
2023-11-12T21:39:38.156Z,100468.69
2023-11-12T21:42:07.253Z,100466.97
2023-11-12T21:44:36.563Z,100453.44
2023-11-12T21:47:05.050Z,100438.97
2023-11-12T21:49:33.019Z,100446.25
2023-11-12T21:52:01.205Z,100441.81
2023-11-12T21:54:29.104Z,100433.75
2023-11-12T21:56:58.437Z,100438.22
2023-11-12T21:59:26.265Z,100441.91
2023-11-12T22:01:54.407Z,100458.13
2023-11-12T22:04:26.104Z,100471.59
2023-11-12T22:06:54.123Z,100472.59
2023-11-12T22:09:22.100Z,100477.91
2023-11-12T22:11:51.874Z,100486.00
2023-11-12T22:14:21.176Z,100500.34
2023-11-12T22:16:49.231Z,100496.75
2023-11-12T22:19:17.269Z,100492.31
2023-11-12T22:21:45.391Z,100479.56
2023-11-12T22:24:13.294Z,100482.41
2023-11-12T22:26:41.624Z,100490.56
2023-11-12T22:29:09.981Z,100492.50
2023-11-12T22:31:39.328Z,100490.75
2023-11-12T22:34:07.512Z,100491.00
2023-11-12T22:36:35.502Z,100502.00
2023-11-12T22:39:05.973Z,100504.84
2023-11-12T22:41:34.017Z,100507.66
2023-11-12T22:44:01.892Z,100505.06
2023-11-12T22:46:29.873Z,100516.81
2023-11-12T22:48:59.301Z,100525.84
2023-11-12T22:51:27.204Z,100518.75
2023-11-12T22:53:55.013Z,100517.94
2023-11-12T22:56:22.908Z,100504.44
2023-11-12T22:58:51.271Z,100500.00
2023-11-12T23:01:21.445Z,100497.38
2023-11-12T23:03:49.867Z,100484.00
2023-11-12T23:06:20.965Z,100495.75
2023-11-12T23:08:48.887Z,100505.16
2023-11-12T23:11:17.051Z,100509.72
2023-11-12T23:13:44.970Z,100504.38
2023-11-12T23:16:13.716Z,100499.94
2023-11-12T23:18:41.747Z,100498.19
2023-11-12T23:21:11.218Z,100493.72
2023-11-12T23:23:40.739Z,100482.88
2023-11-12T23:26:09.310Z,100483.88
2023-11-12T23:28:38.648Z,100479.41
2023-11-12T23:31:06.971Z,100475.94
2023-11-12T23:33:35.687Z,100463.34
2023-11-12T23:36:05.900Z,100459.00
2023-11-12T23:38:33.898Z,100460.84
2023-11-12T23:41:03.147Z,100467.28
2023-11-12T23:43:31.070Z,100450.22
2023-11-12T23:45:59.876Z,100457.63
2023-11-12T23:48:28.105Z,100441.19
2023-11-12T23:50:56.279Z,100434.88
2023-11-12T23:53:24.412Z,100416.84
2023-11-12T23:55:52.285Z,100421.41
2023-11-12T23:58:21.766Z,100414.88
